Vremea mâine în Dorohoi - Romania

Vrei sa afli care e starea vremii acum in Botosani - Romania? Dorim sa iti furnizam starea vremii pentru Botosani - Romania. Starea vremii Botosani - Romania pentru astazi.

Vremea mâine în Dorohoi

Temperatura minimă:
11.3 °C

Temperatura maximă:
24.1 °C

Mâine va fi: Senin
Precipitații: 0 %
Umiditate: 54%
Viteza maximă vânt mâine:
14.8 km/h

Evoluția vremii in Dorohoi pe ore mâine

Ora: 04:00
Temperatura: °C
Sansa de precipitatii: %
Ora Descriere Temp Se simte Precipitatii Umiditate Vant
00:00Senin14°13.9°0%59%SW 6.5 KM/H
01:00Senin14.2°14.1°0%60%SW 7.6 KM/H
02:00Senin13°12.5°0%64%WSW 8.3 KM/H
03:00Senin12.5°11.9°0%66%WSW 8.3 KM/H
04:00Senin12.1°11.4°0%67%WSW 8.3 KM/H
05:00Senin11.7°11.1°0%68%WSW 7.6 KM/H
06:00Senin11.3°11.6°0%69%SSW 3.6 KM/H
07:00Senin12.4°12.5°0%70%SSE 4.7 KM/H
08:00Senin15.2°15.3°0%62%S 5.4 KM/H
09:00Senin17.6°17.6°0%56%SSE 7.2 KM/H
10:00Senin19.6°19.6°0%51%SSE 9.4 KM/H
11:00Senin21.2°21.2°0%46%SSE 9.7 KM/H
12:00Senin22.7°24.3°0%41%SSE 10.1 KM/H
13:00Senin23.5°24.4°0%37%SSE 11.5 KM/H
14:00Senin23.9°24.5°0%36%SSE 12.6 KM/H
15:00Senin24.1°24.6°0%35%SSE 13.7 KM/H
16:00Senin24.1°24.6°0%35%SSE 14.4 KM/H
17:00Senin23.7°24.5°0%36%SSE 14.8 KM/H
18:00Senin23.2°24.6°0%42%SE 12.6 KM/H
19:00Senin21.4°21.5°0%52%SE 10.4 KM/H
20:00Senin18°18°0%61%SSE 13 KM/H
21:00Senin16.1°16.1°0%62%S 13 KM/H
22:00Senin14.9°14.3°0%65%S 11.9 KM/H
23:00Senin14.4°13.7°0%65%S 11.2 KM/H




tutorials